Terminal Aerodrome Forecast
Issued by NWS Detroit/Pontiac, MI

Home | Current Version | Previous Version | Text Only | Print | Product List | Glossary On
Versions: 1 2 3 4 5 6 7 8 9 10 11 12 13 14 15 16
465
FTUS43 KDTX 200921 AAA
TAFFNT
TAF AMD
KFNT 200921Z 2009/2106 23003KT 6SM BR SKC
      TEMPO 2009/2013 2SM BR SKC
     FM201500 22008KT P6SM SKC
     FM202300 19005KT P6SM SCT060=

USA.gov is the U.S. government's official web portal to all federal, state and local government web resources and services.